sensor_id;sensor_type;location;lat;lon;timestamp;temperature;humidity
25963;DHT22;13760;52.588;13.406;2024-01-15T00:00:39;2.10;99.90
25963;DHT22;13760;52.588;13.406;2024-01-15T00:03:05;2.00;99.90
25963;DHT22;13760;52.588;13.406;2024-01-15T00:05:30;2.00;99.90
25963;DHT22;13760;52.588;13.406;2024-01-15T00:07:56;2.10;99.90
25963;DHT22;13760;52.588;13.406;2024-01-15T00:10:21;2.00;99.90
25963;DHT22;13760;52.588;13.406;2024-01-15T00:12:47;2.00;99.90
25963;DHT22;13760;52.588;13.406;2024-01-15T00:15:12;1.90;99.90
25963;DHT22;13760;52.588;13.406;2024-01-15T00:17:38;2.00;99.90
25963;DHT22;13760;52.588;13.406;2024-01-15T00:20:04;1.90;99.90
25963;DHT22;13760;52.588;13.406;2024-01-15T00:22:30;2.00;99.90
25963;DHT22;13760;52.588;13.406;2024-01-15T00:24:56;1.90;99.90
25963;DHT22;13760;52.588;13.406;2024-01-15T00:27:21;1.90;99.90
25963;DHT22;13760;52.588;13.406;2024-01-15T00:29:47;2.00;99.90
25963;DHT22;13760;52.588;13.406;2024-01-15T00:32:13;2.00;99.90
25963;DHT22;13760;52.588;13.406;2024-01-15T00:34:39;1.90;99.90
25963;DHT22;13760;52.588;13.406;2024-01-15T00:37:04;2.00;99.90
25963;DHT22;13760;52.588;13.406;2024-01-15T00:39:32;2.00;99.90
25963;DHT22;13760;52.588;13.406;2024-01-15T00:41:58;1.90;99.90
25963;DHT22;13760;52.588;13.406;2024-01-15T00:44:23;1.90;99.90
25963;DHT22;13760;52.588;13.406;2024-01-15T00:46:48;2.00;99.90
25963;DHT22;13760;52.588;13.406;2024-01-15T00:49:14;2.00;99.90
25963;DHT22;13760;52.588;13.406;2024-01-15T00:51:40;2.00;99.90
25963;DHT22;13760;52.588;13.406;2024-01-15T00:54:06;1.90;99.90
25963;DHT22;13760;52.588;13.406;2024-01-15T00:56:32;1.90;99.90
25963;DHT22;13760;52.588;13.406;2024-01-15T00:58:57;1.90;99.90
25963;DHT22;13760;52.588;13.406;2024-01-15T01:01:23;1.90;99.90
25963;DHT22;13760;52.588;13.406;2024-01-15T01:03:48;1.90;99.90
25963;DHT22;13760;52.588;13.406;2024-01-15T01:06:14;1.80;99.90
25963;DHT22;13760;52.588;13.406;2024-01-15T01:08:39;1.80;99.90
25963;DHT22;13760;52.588;13.406;2024-01-15T01:11:05;1.70;99.90
25963;DHT22;13760;52.588;13.406;2024-01-15T01:13:32;1.70;99.90
25963;DHT22;13760;52.588;13.406;2024-01-15T01:15:58;1.60;99.90
25963;DHT22;13760;52.588;13.406;2024-01-15T01:18:23;1.60;99.90
25963;DHT22;13760;52.588;13.406;2024-01-15T01:20:49;1.60;99.90
25963;DHT22;13760;52.588;13.406;2024-01-15T01:23:14;1.50;99.90
25963;DHT22;13760;52.588;13.406;2024-01-15T01:25:40;1.50;99.90
25963;DHT22;13760;52.588;13.406;2024-01-15T01:28:05;1.50;99.90
25963;DHT22;13760;52.588;13.406;2024-01-15T01:30:31;1.50;99.90
25963;DHT22;13760;52.588;13.406;2024-01-15T01:32:56;1.50;99.90
25963;DHT22;13760;52.588;13.406;2024-01-15T01:35:22;1.50;99.90
25963;DHT22;13760;52.588;13.406;2024-01-15T01:37:48;1.50;99.90
25963;DHT22;13760;52.588;13.406;2024-01-15T01:40:13;1.50;99.90
25963;DHT22;13760;52.588;13.406;2024-01-15T01:42:39;1.50;99.90
25963;DHT22;13760;52.588;13.406;2024-01-15T01:45:05;1.50;99.90
25963;DHT22;13760;52.588;13.406;2024-01-15T01:47:31;1.60;99.90
25963;DHT22;13760;52.588;13.406;2024-01-15T01:49:57;1.60;99.90
25963;DHT22;13760;52.588;13.406;2024-01-15T01:52:23;1.60;99.90
25963;DHT22;13760;52.588;13.406;2024-01-15T01:54:49;1.60;99.90
25963;DHT22;13760;52.588;13.406;2024-01-15T01:57:15;1.60;99.90
25963;DHT22;13760;52.588;13.406;2024-01-15T01:59:42;1.60;99.90
25963;DHT22;13760;52.588;13.406;2024-01-15T02:02:07;1.60;99.90
25963;DHT22;13760;52.588;13.406;2024-01-15T02:04:33;1.60;99.90
25963;DHT22;13760;52.588;13.406;2024-01-15T02:06:59;1.60;99.90
25963;DHT22;13760;52.588;13.406;2024-01-15T02:09:25;1.50;99.90
25963;DHT22;13760;52.588;13.406;2024-01-15T02:11:51;1.50;99.90
25963;DHT22;13760;52.588;13.406;2024-01-15T02:14:16;1.50;99.90
25963;DHT22;13760;52.588;13.406;2024-01-15T02:16:43;1.50;99.90
25963;DHT22;13760;52.588;13.406;2024-01-15T02:19:15;1.40;99.90
25963;DHT22;13760;52.588;13.406;2024-01-15T02:21:40;1.50;99.90
25963;DHT22;13760;52.588;13.406;2024-01-15T02:24:06;1.40;99.90
25963;DHT22;13760;52.588;13.406;2024-01-15T02:26:31;1.40;99.90
25963;DHT22;13760;52.588;13.406;2024-01-15T02:29:01;1.40;99.90
25963;DHT22;13760;52.588;13.406;2024-01-15T02:31:27;1.50;99.90
25963;DHT22;13760;52.588;13.406;2024-01-15T02:33:52;1.40;99.90
25963;DHT22;13760;52.588;13.406;2024-01-15T02:36:18;1.40;99.90
25963;DHT22;13760;52.588;13.406;2024-01-15T02:38:43;1.40;99.90
25963;DHT22;13760;52.588;13.406;2024-01-15T02:41:08;1.40;99.90
25963;DHT22;13760;52.588;13.406;2024-01-15T02:43:34;1.40;99.90
25963;DHT22;13760;52.588;13.406;2024-01-15T02:45:59;1.30;99.90
25963;DHT22;13760;52.588;13.406;2024-01-15T02:48:25;1.40;99.90
25963;DHT22;13760;52.588;13.406;2024-01-15T02:50:50;1.40;99.90
25963;DHT22;13760;52.588;13.406;2024-01-15T02:53:16;1.40;99.90
25963;DHT22;13760;52.588;13.406;2024-01-15T02:55:41;1.40;99.90
25963;DHT22;13760;52.588;13.406;2024-01-15T02:58:07;1.50;99.90
25963;DHT22;13760;52.588;13.406;2024-01-15T03:00:33;1.50;99.90
25963;DHT22;13760;52.588;13.406;2024-01-15T03:02:58;1.50;99.90
25963;DHT22;13760;52.588;13.406;2024-01-15T03:05:24;1.50;99.90
25963;DHT22;13760;52.588;13.406;2024-01-15T03:07:49;1.50;99.90
25963;DHT22;13760;52.588;13.406;2024-01-15T03:10:15;1.50;99.90
25963;DHT22;13760;52.588;13.406;2024-01-15T03:12:40;1.60;99.90
25963;DHT22;13760;52.588;13.406;2024-01-15T03:15:06;1.60;99.90
25963;DHT22;13760;52.588;13.406;2024-01-15T03:17:32;1.60;99.90
25963;DHT22;13760;52.588;13.406;2024-01-15T03:19:57;1.60;99.90
25963;DHT22;13760;52.588;13.406;2024-01-15T03:22:23;1.60;99.90
25963;DHT22;13760;52.588;13.406;2024-01-15T03:24:48;1.60;99.90
25963;DHT22;13760;52.588;13.406;2024-01-15T03:27:13;1.60;99.90
25963;DHT22;13760;52.588;13.406;2024-01-15T03:29:40;1.60;99.90
25963;DHT22;13760;52.588;13.406;2024-01-15T03:32:06;1.60;99.90
25963;DHT22;13760;52.588;13.406;2024-01-15T03:34:31;1.70;99.90
25963;DHT22;13760;52.588;13.406;2024-01-15T03:36:57;1.70;99.90
25963;DHT22;13760;52.588;13.406;2024-01-15T03:39:22;1.70;99.90
25963;DHT22;13760;52.588;13.406;2024-01-15T03:41:47;1.70;99.90
25963;DHT22;13760;52.588;13.406;2024-01-15T03:44:13;1.70;99.90
25963;DHT22;13760;52.588;13.406;2024-01-15T03:46:39;1.70;99.90
25963;DHT22;13760;52.588;13.406;2024-01-15T03:49:04;1.60;99.90
25963;DHT22;13760;52.588;13.406;2024-01-15T03:51:30;1.70;99.90
25963;DHT22;13760;52.588;13.406;2024-01-15T03:53:55;1.60;99.90
25963;DHT22;13760;52.588;13.406;2024-01-15T03:56:20;1.60;99.90
25963;DHT22;13760;52.588;13.406;2024-01-15T03:58:46;1.70;99.90
25963;DHT22;13760;52.588;13.406;2024-01-15T04:01:12;1.70;99.90
25963;DHT22;13760;52.588;13.406;2024-01-15T04:03:37;1.70;99.90
25963;DHT22;13760;52.588;13.406;2024-01-15T04:06:04;1.70;99.90
25963;DHT22;13760;52.588;13.406;2024-01-15T04:08:29;1.70;99.90
25963;DHT22;13760;52.588;13.406;2024-01-15T04:10:55;1.70;99.90
25963;DHT22;13760;52.588;13.406;2024-01-15T04:13:21;1.70;99.90
25963;DHT22;13760;52.588;13.406;2024-01-15T04:15:46;1.70;99.90
25963;DHT22;13760;52.588;13.406;2024-01-15T04:18:12;1.70;99.90
25963;DHT22;13760;52.588;13.406;2024-01-15T04:20:37;1.70;99.90
25963;DHT22;13760;52.588;13.406;2024-01-15T04:23:04;1.70;99.90
25963;DHT22;13760;52.588;13.406;2024-01-15T04:25:29;1.70;99.90
25963;DHT22;13760;52.588;13.406;2024-01-15T04:27:55;1.70;99.90
25963;DHT22;13760;52.588;13.406;2024-01-15T04:30:20;1.70;99.90
25963;DHT22;13760;52.588;13.406;2024-01-15T04:32:46;1.70;99.90
25963;DHT22;13760;52.588;13.406;2024-01-15T04:35:11;1.70;99.90
25963;DHT22;13760;52.588;13.406;2024-01-15T04:37:38;1.70;99.90
25963;DHT22;13760;52.588;13.406;2024-01-15T04:40:05;1.70;99.90
25963;DHT22;13760;52.588;13.406;2024-01-15T04:42:30;1.70;99.90
25963;DHT22;13760;52.588;13.406;2024-01-15T04:44:56;1.70;99.90
25963;DHT22;13760;52.588;13.406;2024-01-15T04:47:22;1.70;99.90
25963;DHT22;13760;52.588;13.406;2024-01-15T04:49:47;1.70;99.90
25963;DHT22;13760;52.588;13.406;2024-01-15T04:52:14;1.70;99.90
25963;DHT22;13760;52.588;13.406;2024-01-15T04:54:40;1.70;99.90
25963;DHT22;13760;52.588;13.406;2024-01-15T04:57:05;1.70;99.90
25963;DHT22;13760;52.588;13.406;2024-01-15T04:59:31;1.70;99.90
25963;DHT22;13760;52.588;13.406;2024-01-15T05:01:56;1.80;99.90
25963;DHT22;13760;52.588;13.406;2024-01-15T05:04:22;1.80;99.90
25963;DHT22;13760;52.588;13.406;2024-01-15T05:06:47;1.80;99.90
25963;DHT22;13760;52.588;13.406;2024-01-15T05:09:13;1.80;99.90
25963;DHT22;13760;52.588;13.406;2024-01-15T05:11:39;1.80;99.90
25963;DHT22;13760;52.588;13.406;2024-01-15T05:14:04;1.80;99.90
25963;DHT22;13760;52.588;13.406;2024-01-15T05:16:30;1.80;99.90
25963;DHT22;13760;52.588;13.406;2024-01-15T05:18:55;1.80;99.90
25963;DHT22;13760;52.588;13.406;2024-01-15T05:21:21;1.80;99.90
25963;DHT22;13760;52.588;13.406;2024-01-15T05:23:46;1.80;99.90
25963;DHT22;13760;52.588;13.406;2024-01-15T05:26:12;1.80;99.90
25963;DHT22;13760;52.588;13.406;2024-01-15T05:28:37;1.80;99.90
25963;DHT22;13760;52.588;13.406;2024-01-15T05:31:06;1.80;99.90
25963;DHT22;13760;52.588;13.406;2024-01-15T05:33:31;1.70;99.90
25963;DHT22;13760;52.588;13.406;2024-01-15T05:35:57;1.70;99.90
25963;DHT22;13760;52.588;13.406;2024-01-15T05:38:24;1.70;99.90
25963;DHT22;13760;52.588;13.406;2024-01-15T05:40:49;1.70;99.90
25963;DHT22;13760;52.588;13.406;2024-01-15T05:43:15;1.80;99.90
25963;DHT22;13760;52.588;13.406;2024-01-15T05:45:43;1.80;99.90
25963;DHT22;13760;52.588;13.406;2024-01-15T05:48:08;1.70;99.90
25963;DHT22;13760;52.588;13.406;2024-01-15T05:50:34;1.80;99.90
25963;DHT22;13760;52.588;13.406;2024-01-15T05:52:59;1.80;99.90
25963;DHT22;13760;52.588;13.406;2024-01-15T05:55:25;1.80;99.90
25963;DHT22;13760;52.588;13.406;2024-01-15T05:57:51;1.80;99.90
25963;DHT22;13760;52.588;13.406;2024-01-15T06:00:16;1.90;99.90
25963;DHT22;13760;52.588;13.406;2024-01-15T06:02:42;1.90;99.90
25963;DHT22;13760;52.588;13.406;2024-01-15T06:05:07;1.90;99.90
25963;DHT22;13760;52.588;13.406;2024-01-15T06:07:34;1.90;99.90
25963;DHT22;13760;52.588;13.406;2024-01-15T06:10:00;1.90;99.90
25963;DHT22;13760;52.588;13.406;2024-01-15T06:12:26;1.90;99.90
25963;DHT22;13760;52.588;13.406;2024-01-15T06:14:53;2.00;99.90
25963;DHT22;13760;52.588;13.406;2024-01-15T06:17:18;2.00;99.90
25963;DHT22;13760;52.588;13.406;2024-01-15T06:19:44;2.00;99.90
25963;DHT22;13760;52.588;13.406;2024-01-15T06:22:09;2.00;99.90
25963;DHT22;13760;52.588;13.406;2024-01-15T06:24:35;2.00;99.90
25963;DHT22;13760;52.588;13.406;2024-01-15T06:27:00;1.90;99.90
25963;DHT22;13760;52.588;13.406;2024-01-15T06:29:30;2.00;99.90
25963;DHT22;13760;52.588;13.406;2024-01-15T06:31:55;2.00;99.90
25963;DHT22;13760;52.588;13.406;2024-01-15T06:34:21;2.00;99.90
25963;DHT22;13760;52.588;13.406;2024-01-15T06:36:46;2.00;99.90
25963;DHT22;13760;52.588;13.406;2024-01-15T06:39:12;2.00;99.90
25963;DHT22;13760;52.588;13.406;2024-01-15T06:41:37;2.00;99.90
25963;DHT22;13760;52.588;13.406;2024-01-15T06:44:09;2.10;99.90
25963;DHT22;13760;52.588;13.406;2024-01-15T06:46:35;2.00;99.90
25963;DHT22;13760;52.588;13.406;2024-01-15T06:49:00;2.10;99.90
25963;DHT22;13760;52.588;13.406;2024-01-15T06:51:26;2.10;99.90
25963;DHT22;13760;52.588;13.406;2024-01-15T06:53:51;2.00;99.90
25963;DHT22;13760;52.588;13.406;2024-01-15T06:56:17;2.00;99.90
25963;DHT22;13760;52.588;13.406;2024-01-15T06:58:42;2.00;99.90
25963;DHT22;13760;52.588;13.406;2024-01-15T07:01:08;2.00;99.90
25963;DHT22;13760;52.588;13.406;2024-01-15T07:03:33;2.00;99.90
25963;DHT22;13760;52.588;13.406;2024-01-15T07:05:59;2.00;99.90
25963;DHT22;13760;52.588;13.406;2024-01-15T07:08:25;2.00;99.90
25963;DHT22;13760;52.588;13.406;2024-01-15T07:10:50;2.00;99.90
25963;DHT22;13760;52.588;13.406;2024-01-15T07:13:16;1.90;99.90
25963;DHT22;13760;52.588;13.406;2024-01-15T07:15:41;1.80;99.90
25963;DHT22;13760;52.588;13.406;2024-01-15T07:18:07;1.70;99.90
25963;DHT22;13760;52.588;13.406;2024-01-15T07:20:32;1.70;99.90
25963;DHT22;13760;52.588;13.406;2024-01-15T07:22:58;1.70;99.90
25963;DHT22;13760;52.588;13.406;2024-01-15T07:25:23;1.70;99.90
25963;DHT22;13760;52.588;13.406;2024-01-15T07:27:51;1.70;99.90
25963;DHT22;13760;52.588;13.406;2024-01-15T07:30:17;1.70;99.90
25963;DHT22;13760;52.588;13.406;2024-01-15T07:32:42;1.60;99.90
25963;DHT22;13760;52.588;13.406;2024-01-15T07:35:08;1.50;99.90
25963;DHT22;13760;52.588;13.406;2024-01-15T07:37:33;1.60;99.90
25963;DHT22;13760;52.588;13.406;2024-01-15T07:39:59;1.60;99.90
25963;DHT22;13760;52.588;13.406;2024-01-15T07:42:25;1.60;99.90
25963;DHT22;13760;52.588;13.406;2024-01-15T07:44:51;1.60;99.90
25963;DHT22;13760;52.588;13.406;2024-01-15T07:47:17;1.70;99.90
25963;DHT22;13760;52.588;13.406;2024-01-15T07:49:42;1.70;99.90
25963;DHT22;13760;52.588;13.406;2024-01-15T07:52:08;1.70;99.90
25963;DHT22;13760;52.588;13.406;2024-01-15T07:54:33;1.80;99.90
25963;DHT22;13760;52.588;13.406;2024-01-15T07:57:01;1.80;99.90
25963;DHT22;13760;52.588;13.406;2024-01-15T07:59:28;1.90;99.90
25963;DHT22;13760;52.588;13.406;2024-01-15T08:01:53;1.90;99.90
25963;DHT22;13760;52.588;13.406;2024-01-15T08:04:19;1.90;99.90
25963;DHT22;13760;52.588;13.406;2024-01-15T08:06:45;1.90;99.90
25963;DHT22;13760;52.588;13.406;2024-01-15T08:09:11;1.90;99.90
25963;DHT22;13760;52.588;13.406;2024-01-15T08:11:41;1.90;99.90
25963;DHT22;13760;52.588;13.406;2024-01-15T08:14:07;1.90;99.90
25963;DHT22;13760;52.588;13.406;2024-01-15T08:16:33;1.90;99.90
25963;DHT22;13760;52.588;13.406;2024-01-15T08:18:58;2.00;99.90
25963;DHT22;13760;52.588;13.406;2024-01-15T08:21:24;2.00;99.90
25963;DHT22;13760;52.588;13.406;2024-01-15T08:23:50;2.00;99.90
25963;DHT22;13760;52.588;13.406;2024-01-15T08:26:15;2.00;99.90
25963;DHT22;13760;52.588;13.406;2024-01-15T08:28:41;2.10;99.90
25963;DHT22;13760;52.588;13.406;2024-01-15T08:31:06;2.10;99.90
25963;DHT22;13760;52.588;13.406;2024-01-15T08:33:32;2.10;99.90
25963;DHT22;13760;52.588;13.406;2024-01-15T08:35:57;2.10;99.90
25963;DHT22;13760;52.588;13.406;2024-01-15T08:38:23;2.10;99.90
25963;DHT22;13760;52.588;13.406;2024-01-15T08:40:49;2.10;99.90
25963;DHT22;13760;52.588;13.406;2024-01-15T08:43:15;2.10;99.90
25963;DHT22;13760;52.588;13.406;2024-01-15T08:45:40;2.10;99.90
25963;DHT22;13760;52.588;13.406;2024-01-15T08:48:06;2.20;99.90
25963;DHT22;13760;52.588;13.406;2024-01-15T08:50:32;2.10;99.90
25963;DHT22;13760;52.588;13.406;2024-01-15T08:52:58;2.20;99.90
25963;DHT22;13760;52.588;13.406;2024-01-15T08:55:24;2.20;99.90
25963;DHT22;13760;52.588;13.406;2024-01-15T08:57:50;2.20;99.90
25963;DHT22;13760;52.588;13.406;2024-01-15T09:00:16;2.10;99.90
25963;DHT22;13760;52.588;13.406;2024-01-15T09:02:42;2.10;99.90
25963;DHT22;13760;52.588;13.406;2024-01-15T09:05:08;2.10;99.90
25963;DHT22;13760;52.588;13.406;2024-01-15T09:07:33;2.10;99.90
25963;DHT22;13760;52.588;13.406;2024-01-15T09:09:59;2.10;99.90
25963;DHT22;13760;52.588;13.406;2024-01-15T09:12:28;2.20;99.90
25963;DHT22;13760;52.588;13.406;2024-01-15T09:14:54;2.20;99.90
25963;DHT22;13760;52.588;13.406;2024-01-15T09:17:21;2.20;99.90
25963;DHT22;13760;52.588;13.406;2024-01-15T09:19:49;2.20;99.90
25963;DHT22;13760;52.588;13.406;2024-01-15T09:22:14;2.20;99.90
25963;DHT22;13760;52.588;13.406;2024-01-15T09:24:44;2.20;99.90
25963;DHT22;13760;52.588;13.406;2024-01-15T09:27:09;2.20;99.90
25963;DHT22;13760;52.588;13.406;2024-01-15T09:29:35;2.20;99.90
25963;DHT22;13760;52.588;13.406;2024-01-15T09:32:05;2.30;99.90
25963;DHT22;13760;52.588;13.406;2024-01-15T09:34:31;2.30;99.90
25963;DHT22;13760;52.588;13.406;2024-01-15T09:36:56;2.30;99.90
25963;DHT22;13760;52.588;13.406;2024-01-15T09:39:22;2.40;99.90
25963;DHT22;13760;52.588;13.406;2024-01-15T09:41:49;2.50;99.90
25963;DHT22;13760;52.588;13.406;2024-01-15T09:44:15;2.50;99.90
25963;DHT22;13760;52.588;13.406;2024-01-15T09:46:42;2.60;99.90
25963;DHT22;13760;52.588;13.406;2024-01-15T09:49:10;2.60;99.90
25963;DHT22;13760;52.588;13.406;2024-01-15T09:51:36;2.60;99.90
25963;DHT22;13760;52.588;13.406;2024-01-15T09:54:02;2.60;99.90
25963;DHT22;13760;52.588;13.406;2024-01-15T09:56:30;2.60;99.90
25963;DHT22;13760;52.588;13.406;2024-01-15T09:58:57;2.60;99.90
25963;DHT22;13760;52.588;13.406;2024-01-15T10:01:23;2.70;99.90
25963;DHT22;13760;52.588;13.406;2024-01-15T10:03:50;2.70;99.90
25963;DHT22;13760;52.588;13.406;2024-01-15T10:06:16;2.80;99.90
25963;DHT22;13760;52.588;13.406;2024-01-15T10:08:48;2.90;99.90
25963;DHT22;13760;52.588;13.406;2024-01-15T10:11:14;2.90;99.90
25963;DHT22;13760;52.588;13.406;2024-01-15T10:13:40;3.00;99.90
25963;DHT22;13760;52.588;13.406;2024-01-15T10:16:06;3.00;99.90
25963;DHT22;13760;52.588;13.406;2024-01-15T10:18:32;3.00;99.90
25963;DHT22;13760;52.588;13.406;2024-01-15T10:20:58;3.10;99.90
25963;DHT22;13760;52.588;13.406;2024-01-15T10:23:24;3.10;99.90
25963;DHT22;13760;52.588;13.406;2024-01-15T10:25:49;3.10;99.90
25963;DHT22;13760;52.588;13.406;2024-01-15T10:28:17;3.10;99.90
25963;DHT22;13760;52.588;13.406;2024-01-15T10:30:44;3.10;99.90
25963;DHT22;13760;52.588;13.406;2024-01-15T10:33:10;3.00;99.90
25963;DHT22;13760;52.588;13.406;2024-01-15T10:35:37;3.00;99.90
25963;DHT22;13760;52.588;13.406;2024-01-15T10:38:03;2.90;99.90
25963;DHT22;13760;52.588;13.406;2024-01-15T10:40:31;2.90;99.90
25963;DHT22;13760;52.588;13.406;2024-01-15T10:42:57;2.90;99.90
25963;DHT22;13760;52.588;13.406;2024-01-15T10:45:23;2.90;99.90
25963;DHT22;13760;52.588;13.406;2024-01-15T10:47:48;2.90;99.90
25963;DHT22;13760;52.588;13.406;2024-01-15T10:50:14;2.90;99.90
25963;DHT22;13760;52.588;13.406;2024-01-15T10:52:40;2.90;99.90
25963;DHT22;13760;52.588;13.406;2024-01-15T10:55:07;2.90;99.90
25963;DHT22;13760;52.588;13.406;2024-01-15T10:57:38;2.90;99.90
25963;DHT22;13760;52.588;13.406;2024-01-15T11:00:07;2.90;99.90
25963;DHT22;13760;52.588;13.406;2024-01-15T11:02:37;2.90;99.90
25963;DHT22;13760;52.588;13.406;2024-01-15T11:05:03;3.00;99.90
25963;DHT22;13760;52.588;13.406;2024-01-15T11:07:32;3.00;99.90
25963;DHT22;13760;52.588;13.406;2024-01-15T11:09:58;3.00;99.90
25963;DHT22;13760;52.588;13.406;2024-01-15T11:12:26;3.00;99.90
25963;DHT22;13760;52.588;13.406;2024-01-15T11:14:52;3.00;99.90
25963;DHT22;13760;52.588;13.406;2024-01-15T11:17:20;3.00;99.90
25963;DHT22;13760;52.588;13.406;2024-01-15T11:22:47;3.00;99.90
25963;DHT22;13760;52.588;13.406;2024-01-15T11:25:14;3.00;99.90
25963;DHT22;13760;52.588;13.406;2024-01-15T11:27:40;3.00;99.90
25963;DHT22;13760;52.588;13.406;2024-01-15T11:30:10;3.10;99.90
25963;DHT22;13760;52.588;13.406;2024-01-15T11:32:36;3.20;99.90
25963;DHT22;13760;52.588;13.406;2024-01-15T11:35:02;3.20;99.90
25963;DHT22;13760;52.588;13.406;2024-01-15T11:37:55;3.10;99.90
25963;DHT22;13760;52.588;13.406;2024-01-15T11:40:18;3.10;99.90
25963;DHT22;13760;52.588;13.406;2024-01-15T11:42:45;3.10;99.90
25963;DHT22;13760;52.588;13.406;2024-01-15T11:45:11;3.00;99.90
25963;DHT22;13760;52.588;13.406;2024-01-15T11:50:24;2.90;99.90
25963;DHT22;13760;52.588;13.406;2024-01-15T11:53:02;2.90;99.90
25963;DHT22;13760;52.588;13.406;2024-01-15T11:55:36;2.80;99.90
25963;DHT22;13760;52.588;13.406;2024-01-15T11:58:08;2.70;99.90
25963;DHT22;13760;52.588;13.406;2024-01-15T12:00:34;2.70;99.90
25963;DHT22;13760;52.588;13.406;2024-01-15T12:03:00;2.60;99.90
25963;DHT22;13760;52.588;13.406;2024-01-15T12:05:27;2.60;99.90
25963;DHT22;13760;52.588;13.406;2024-01-15T12:07:52;2.60;99.90
25963;DHT22;13760;52.588;13.406;2024-01-15T12:10:20;2.60;99.90
25963;DHT22;13760;52.588;13.406;2024-01-15T12:13:12;2.50;99.90
25963;DHT22;13760;52.588;13.406;2024-01-15T12:15:38;2.50;99.90
25963;DHT22;13760;52.588;13.406;2024-01-15T12:18:08;2.50;99.90
25963;DHT22;13760;52.588;13.406;2024-01-15T12:20:34;2.40;99.90
25963;DHT22;13760;52.588;13.406;2024-01-15T12:23:00;2.40;99.90
25963;DHT22;13760;52.588;13.406;2024-01-15T12:25:27;2.40;99.90
25963;DHT22;13760;52.588;13.406;2024-01-15T12:27:54;2.40;99.90
25963;DHT22;13760;52.588;13.406;2024-01-15T12:30:20;2.40;99.90
25963;DHT22;13760;52.588;13.406;2024-01-15T12:32:46;2.40;99.90
25963;DHT22;13760;52.588;13.406;2024-01-15T12:35:13;2.30;99.90
25963;DHT22;13760;52.588;13.406;2024-01-15T12:37:39;2.30;99.90
25963;DHT22;13760;52.588;13.406;2024-01-15T12:40:06;2.20;99.90
25963;DHT22;13760;52.588;13.406;2024-01-15T12:42:50;2.10;99.90
25963;DHT22;13760;52.588;13.406;2024-01-15T12:45:16;2.10;99.90
25963;DHT22;13760;52.588;13.406;2024-01-15T12:47:42;2.10;99.90
25963;DHT22;13760;52.588;13.406;2024-01-15T12:50:12;2.10;99.90
25963;DHT22;13760;52.588;13.406;2024-01-15T12:52:39;2.10;99.90
25963;DHT22;13760;52.588;13.406;2024-01-15T12:55:06;2.10;99.90
25963;DHT22;13760;52.588;13.406;2024-01-15T12:57:32;2.20;99.90
25963;DHT22;13760;52.588;13.406;2024-01-15T12:59:58;2.20;99.90
25963;DHT22;13760;52.588;13.406;2024-01-15T13:02:24;2.20;99.90
25963;DHT22;13760;52.588;13.406;2024-01-15T13:04:49;2.20;99.90
25963;DHT22;13760;52.588;13.406;2024-01-15T13:07:15;2.20;99.90
25963;DHT22;13760;52.588;13.406;2024-01-15T13:09:40;2.20;99.90
25963;DHT22;13760;52.588;13.406;2024-01-15T13:12:06;2.20;99.90
25963;DHT22;13760;52.588;13.406;2024-01-15T13:14:32;2.20;99.90
25963;DHT22;13760;52.588;13.406;2024-01-15T13:16:58;2.20;99.90
25963;DHT22;13760;52.588;13.406;2024-01-15T13:19:24;2.20;99.90
25963;DHT22;13760;52.588;13.406;2024-01-15T13:21:50;2.20;99.90
25963;DHT22;13760;52.588;13.406;2024-01-15T13:24:17;2.20;99.90
25963;DHT22;13760;52.588;13.406;2024-01-15T13:26:42;2.20;99.90
25963;DHT22;13760;52.588;13.406;2024-01-15T13:29:08;2.20;99.90
25963;DHT22;13760;52.588;13.406;2024-01-15T13:31:33;2.20;99.90
25963;DHT22;13760;52.588;13.406;2024-01-15T13:33:59;2.20;99.90
25963;DHT22;13760;52.588;13.406;2024-01-15T13:36:26;2.30;99.90
25963;DHT22;13760;52.588;13.406;2024-01-15T13:38:52;2.30;99.90
25963;DHT22;13760;52.588;13.406;2024-01-15T13:41:19;2.30;99.90
25963;DHT22;13760;52.588;13.406;2024-01-15T13:43:49;2.30;99.90
25963;DHT22;13760;52.588;13.406;2024-01-15T13:46:15;2.30;99.90
25963;DHT22;13760;52.588;13.406;2024-01-15T13:48:40;2.30;99.90
25963;DHT22;13760;52.588;13.406;2024-01-15T13:51:06;2.30;99.90
25963;DHT22;13760;52.588;13.406;2024-01-15T13:53:31;2.30;99.90
25963;DHT22;13760;52.588;13.406;2024-01-15T13:55:57;2.30;99.90
25963;DHT22;13760;52.588;13.406;2024-01-15T13:58:22;2.30;99.90
25963;DHT22;13760;52.588;13.406;2024-01-15T14:00:48;2.30;99.90
25963;DHT22;13760;52.588;13.406;2024-01-15T14:03:14;2.30;99.90
25963;DHT22;13760;52.588;13.406;2024-01-15T14:05:40;2.30;99.90
25963;DHT22;13760;52.588;13.406;2024-01-15T14:08:06;2.30;99.90
25963;DHT22;13760;52.588;13.406;2024-01-15T14:10:31;2.30;99.90
25963;DHT22;13760;52.588;13.406;2024-01-15T14:12:57;2.20;99.90
25963;DHT22;13760;52.588;13.406;2024-01-15T14:15:22;2.30;99.90
25963;DHT22;13760;52.588;13.406;2024-01-15T14:17:48;2.30;99.90
25963;DHT22;13760;52.588;13.406;2024-01-15T14:20:13;2.20;99.90
25963;DHT22;13760;52.588;13.406;2024-01-15T14:22:39;2.30;99.90
25963;DHT22;13760;52.588;13.406;2024-01-15T14:25:04;2.20;99.90
25963;DHT22;13760;52.588;13.406;2024-01-15T14:27:30;2.20;99.90
25963;DHT22;13760;52.588;13.406;2024-01-15T14:29:55;2.20;99.90
25963;DHT22;13760;52.588;13.406;2024-01-15T14:32:21;2.20;99.90
25963;DHT22;13760;52.588;13.406;2024-01-15T14:34:46;2.20;99.90
25963;DHT22;13760;52.588;13.406;2024-01-15T14:37:13;2.20;99.90
25963;DHT22;13760;52.588;13.406;2024-01-15T14:39:38;2.20;99.90
25963;DHT22;13760;52.588;13.406;2024-01-15T14:42:04;2.20;99.90
25963;DHT22;13760;52.588;13.406;2024-01-15T14:44:29;2.20;99.90
25963;DHT22;13760;52.588;13.406;2024-01-15T14:46:55;2.20;99.90
25963;DHT22;13760;52.588;13.406;2024-01-15T14:49:21;2.10;99.90
25963;DHT22;13760;52.588;13.406;2024-01-15T14:51:46;2.10;99.90
25963;DHT22;13760;52.588;13.406;2024-01-15T14:54:13;2.10;99.90
25963;DHT22;13760;52.588;13.406;2024-01-15T14:56:38;2.10;99.90
25963;DHT22;13760;52.588;13.406;2024-01-15T14:59:04;2.10;99.90
25963;DHT22;13760;52.588;13.406;2024-01-15T15:01:30;2.10;99.90
25963;DHT22;13760;52.588;13.406;2024-01-15T15:04:05;2.00;99.90
25963;DHT22;13760;52.588;13.406;2024-01-15T15:06:30;2.00;99.90
25963;DHT22;13760;52.588;13.406;2024-01-15T15:08:56;2.00;99.90
25963;DHT22;13760;52.588;13.406;2024-01-15T15:11:27;2.00;99.90
25963;DHT22;13760;52.588;13.406;2024-01-15T15:13:53;2.00;99.90
25963;DHT22;13760;52.588;13.406;2024-01-15T15:16:18;2.00;99.90
25963;DHT22;13760;52.588;13.406;2024-01-15T15:18:44;2.00;99.90
25963;DHT22;13760;52.588;13.406;2024-01-15T15:21:11;1.90;99.90
25963;DHT22;13760;52.588;13.406;2024-01-15T15:23:37;1.90;99.90
25963;DHT22;13760;52.588;13.406;2024-01-15T15:26:04;1.80;99.90
25963;DHT22;13760;52.588;13.406;2024-01-15T15:28:30;1.70;99.90